Airfield :
LOGIN :

Register | Disclaimer

   EN    FR    IT 

 










Legend :    VFR   Marginal VFR   IFR   Intensive IFR   Very Intensive IFR
Visi :
Ceiling :
>= 8 km
>= 3000ft
5 to 8 km
1000 to 3000 ft
1500m to 5 km
500 to 1000 ft
800 to 1500m
200 to 500 ft
< 800m
< 200 ft
Symbols :   Thunderstorms  Fog  Heavy snow  Heavy precipitations  Wind > 20 kt
SIGMETs :     Misc.  Thunderstorms  Icing  Turbulence  Mountain Waves  Volcanic Ashes







- Airport Elevation : 63 ft
- IATA code : BZM


EHWO - Woensdrecht Airbase

CURRENT METAR :
  • 261525Z AUTO 21008KT 180V270 9999 BKN085 17/05 Q1012 BLU

EXPIRED METARs :
  • 261455Z AUTO 25011KT 160V280 9999 FEW045 SCT055 BKN081 17/06 Q1012 BLU
  • 261425Z AUTO 22010KT 200V260 9999 SCT058 BKN064 BKN069 16/06 Q1013 BLU
  • 261355Z AUTO 25011KT 220V290 9999 FEW042 BKN051 BKN056 16/06 Q1013 BLU
  • 261325Z AUTO 25013KT 200V280 9999 FEW055 SCT061 16/05 Q1012 BLU
  • 261255Z AUTO 25010KT 210V270 9999 SCT050 BKN056 BKN066 15/06 Q1012 BLU 24010KT 9999 SCT040 SCT060 TEMPO 25010G20KT

TAF COR TAF EHWO
Valid from the 26 at 13:00 until the 27 at 01:00 UTC


261218Z 2613/2701 24010KT 9999 SCT030
PROB30
TEMPO 2613/2615 24010G20KT FEW025CB SCT030
TEMPO 2615/2623 4000 SHRA SCT025CB BKN030
No reported NOTAMs for that airfield.



MET'MAP, your aeronautical weather chart ! - Copyright ORBIFLY December 2007 - Disclaimer

ORBIFLY MET'MAP TEAM :

Programming & Development : Alexandra Zaïnal
Concept & Development : Baudouin d'Aumeries
Co-Development & Prog : Marc-Olivier Méhu
Technical & hardware support : Manuel Goepfert

Contact : metmap@orbifly.com




SOURCES & CREDITS :

   NOAA